createdAt,value
2023-02-26T00:00:31.841Z,97440.00
2023-02-26T00:04:32.804Z,97436.00
2023-02-26T00:08:34.087Z,97443.00
2023-02-26T00:12:35.829Z,97440.00
2023-02-26T00:16:37.394Z,97447.00
2023-02-26T00:20:38.991Z,97459.00
2023-02-26T00:24:40.170Z,97450.00
2023-02-26T00:28:41.843Z,97460.00
2023-02-26T00:32:44.054Z,97480.00
2023-02-26T00:37:12.459Z,97490.00
2023-02-26T00:41:14.981Z,97471.00
2023-02-26T00:45:16.702Z,97485.00
2023-02-26T00:49:37.919Z,97467.00
2023-02-26T00:53:48.844Z,97464.00
2023-02-26T00:57:49.816Z,97463.00
2023-02-26T01:01:52.204Z,97468.00
2023-02-26T01:05:53.610Z,97473.00
2023-02-26T01:09:55.194Z,97480.00
2023-02-26T01:13:56.574Z,97480.00
2023-02-26T01:18:10.710Z,97481.00
2023-02-26T01:22:25.574Z,97475.00
2023-02-26T01:26:28.709Z,97487.00
2023-02-26T01:30:30.608Z,97489.00
2023-02-26T01:34:38.388Z,97483.00
2023-02-26T01:38:45.955Z,97489.00
2023-02-26T01:42:50.709Z,97494.00
2023-02-26T01:46:55.703Z,97490.00
2023-02-26T01:50:56.593Z,97496.00
2023-02-26T01:54:57.637Z,97505.00
2023-02-26T01:58:59.081Z,97493.00
2023-02-26T02:03:00.797Z,97500.00
2023-02-26T02:07:02.971Z,97518.00
2023-02-26T02:11:07.887Z,97514.00
2023-02-26T02:15:27.482Z,97516.00
2023-02-26T02:19:35.094Z,97516.00
2023-02-26T02:23:43.075Z,97516.00
2023-02-26T02:27:50.381Z,97519.00
2023-02-26T02:32:07.340Z,97526.00
2023-02-26T02:36:12.235Z,97521.00
2023-02-26T02:40:17.034Z,97527.00
2023-02-26T02:44:20.841Z,97532.00
2023-02-26T02:48:34.634Z,97548.00
2023-02-26T02:52:45.127Z,97536.00
2023-02-26T02:57:08.029Z,97534.00
2023-02-26T03:01:12.762Z,97535.00
2023-02-26T03:05:14.826Z,97556.00
2023-02-26T03:09:15.989Z,97553.00
2023-02-26T03:13:22.205Z,97545.00
2023-02-26T03:17:49.701Z,97554.00
2023-02-26T03:22:03.700Z,97551.00
2023-02-26T03:26:14.233Z,97561.00
2023-02-26T03:30:21.852Z,97558.00
2023-02-26T03:34:32.867Z,97571.00
2023-02-26T03:38:49.133Z,97575.00
2023-02-26T03:43:08.892Z,97577.00
2023-02-26T03:47:13.281Z,97578.00
2023-02-26T03:51:14.754Z,97580.00
2023-02-26T03:55:19.432Z,97583.00
2023-02-26T03:59:20.726Z,97582.00
2023-02-26T04:03:40.606Z,97580.00
2023-02-26T04:07:41.873Z,97600.00
2023-02-26T04:11:43.212Z,97593.00
2023-02-26T04:15:44.299Z,97607.00
2023-02-26T04:19:45.411Z,97606.00
2023-02-26T04:23:47.134Z,97619.00
2023-02-26T04:27:48.363Z,97618.00
2023-02-26T04:31:49.495Z,97623.00
2023-02-26T04:35:50.495Z,97616.00
2023-02-26T04:39:51.586Z,97624.00
2023-02-26T04:43:52.524Z,97634.00
2023-02-26T04:47:53.629Z,97632.00
2023-02-26T04:51:54.792Z,97654.00
2023-02-26T04:55:56.008Z,97642.00
2023-02-26T04:59:57.001Z,97651.00
2023-02-26T05:03:58.132Z,97653.00
2023-02-26T05:07:59.240Z,97655.00
2023-02-26T05:12:00.309Z,97670.00
2023-02-26T05:16:01.415Z,97668.00
2023-02-26T05:20:03.103Z,97662.00
2023-02-26T05:24:04.447Z,97675.00
2023-02-26T05:28:05.540Z,97683.00
2023-02-26T05:32:06.685Z,97680.00
2023-02-26T05:36:07.685Z,97692.00
2023-02-26T05:40:10.502Z,97698.00
2023-02-26T05:44:12.225Z,97692.00
2023-02-26T05:48:13.222Z,97689.00
2023-02-26T05:52:14.555Z,97688.00
2023-02-26T05:56:17.576Z,97707.00
2023-02-26T06:00:19.082Z,97706.00
2023-02-26T06:04:22.972Z,97723.00
2023-02-26T06:08:24.195Z,97725.00
2023-02-26T06:12:25.407Z,97725.00
2023-02-26T06:16:27.186Z,97726.00
2023-02-26T06:20:28.582Z,97742.00
2023-02-26T06:24:29.836Z,97749.00
2023-02-26T06:28:31.357Z,97759.00
2023-02-26T06:32:32.508Z,97771.00
2023-02-26T06:36:33.633Z,97760.00
2023-02-26T06:40:34.781Z,97771.00
2023-02-26T06:44:35.926Z,97790.00
2023-02-26T06:48:36.928Z,97793.00
2023-02-26T06:52:38.040Z,97805.00
2023-02-26T06:56:39.014Z,97801.00
2023-02-26T07:00:41.071Z,97832.00
2023-02-26T07:04:42.100Z,97824.00
2023-02-26T07:08:43.212Z,97818.00
2023-02-26T07:12:44.309Z,97829.00
2023-02-26T07:16:45.419Z,97831.00
2023-02-26T07:20:48.893Z,97839.00
2023-02-26T07:24:50.760Z,97835.00
2023-02-26T07:28:51.735Z,97851.00
2023-02-26T07:32:52.891Z,97858.00
2023-02-26T07:36:54.183Z,97869.00
2023-02-26T07:40:55.865Z,97868.00
2023-02-26T07:44:56.992Z,97867.00
2023-02-26T07:48:58.111Z,97885.00
2023-02-26T07:52:59.341Z,97877.00
2023-02-26T07:57:00.920Z,97903.00
2023-02-26T08:01:02.346Z,97896.00
2023-02-26T08:05:03.919Z,97912.00
2023-02-26T08:09:05.301Z,97913.00
2023-02-26T08:13:06.407Z,97913.00
2023-02-26T08:17:08.848Z,97938.00
2023-02-26T08:21:11.026Z,97928.00
2023-02-26T08:25:12.452Z,97926.00
2023-02-26T08:29:13.679Z,97930.00
2023-02-26T08:33:14.684Z,97923.00
2023-02-26T08:37:15.815Z,97939.00
2023-02-26T08:41:17.260Z,97947.00
2023-02-26T08:45:18.453Z,97936.00
2023-02-26T08:49:19.573Z,97963.00
2023-02-26T08:53:20.869Z,97952.00
2023-02-26T08:57:22.033Z,97962.00
2023-02-26T09:01:23.119Z,97967.00
2023-02-26T09:05:24.210Z,97975.00
2023-02-26T09:09:25.274Z,97972.00
2023-02-26T09:13:26.369Z,97974.00
2023-02-26T09:17:27.384Z,97982.00
2023-02-26T09:21:28.714Z,97986.00
2023-02-26T09:25:29.681Z,97997.00
2023-02-26T09:29:30.915Z,97992.00
2023-02-26T09:33:32.618Z,98001.00
2023-02-26T09:37:33.681Z,98004.00
2023-02-26T09:41:47.677Z,98010.00
2023-02-26T09:45:51.113Z,98013.00
2023-02-26T09:50:06.513Z,98009.00
2023-02-26T09:54:23.385Z,98011.00
2023-02-26T09:58:30.916Z,98027.00
2023-02-26T10:02:41.695Z,98017.00
2023-02-26T10:06:58.642Z,98052.00
2023-02-26T10:11:09.239Z,98014.00
2023-02-26T10:15:17.016Z,98053.00
2023-02-26T10:19:21.896Z,98011.00
2023-02-26T10:23:38.643Z,98049.00
2023-02-26T10:27:46.475Z,98074.00
2023-02-26T10:32:20.301Z,98075.00
2023-02-26T10:36:30.324Z,98069.00
2023-02-26T10:40:56.652Z,98085.00
2023-02-26T10:45:01.499Z,98097.00
2023-02-26T10:49:25.851Z,98089.00
2023-02-26T10:53:30.090Z,98075.00
2023-02-26T10:57:34.365Z,98110.00
2023-02-26T11:01:35.717Z,98107.00
2023-02-26T11:05:36.953Z,98111.00
2023-02-26T11:09:41.675Z,98116.00
2023-02-26T11:13:44.279Z,98088.00
2023-02-26T11:17:48.059Z,98108.00
2023-02-26T11:21:50.446Z,98092.00
2023-02-26T11:26:04.680Z,98094.00
2023-02-26T11:30:17.982Z,98059.00
2023-02-26T11:34:21.721Z,98072.00
2023-02-26T11:38:25.578Z,98106.00
2023-02-26T11:42:29.573Z,98108.00
2023-02-26T11:46:30.985Z,98104.00
2023-02-26T11:50:35.738Z,98089.00
2023-02-26T11:54:39.763Z,98103.00
2023-02-26T11:58:44.525Z,98107.00
2023-02-26T12:02:45.729Z,98077.00
2023-02-26T12:06:53.660Z,98100.00
2023-02-26T12:11:31.686Z,98103.00
2023-02-26T12:15:37.103Z,98093.00
2023-02-26T12:20:16.617Z,98098.00
2023-02-26T12:24:46.172Z,98099.00
2023-02-26T12:29:23.247Z,98103.00
2023-02-26T12:33:49.839Z,98104.00
2023-02-26T12:38:00.448Z,98013.00
2023-02-26T12:42:16.743Z,98094.00
2023-02-26T12:46:42.073Z,98121.00
2023-02-26T12:51:03.543Z,98128.00
2023-02-26T12:55:23.926Z,98120.00
2023-02-26T12:59:31.492Z,98123.00
2023-02-26T13:03:45.319Z,98125.00
2023-02-26T13:07:56.193Z,98125.00
2023-02-26T13:12:23.806Z,98133.00
2023-02-26T13:16:53.018Z,98138.00
2023-02-26T13:20:59.844Z,98125.00
2023-02-26T13:25:07.167Z,98125.00
2023-02-26T13:29:39.639Z,98142.00
2023-02-26T13:33:41.885Z,98144.00
2023-02-26T13:37:46.330Z,98135.00
2023-02-26T13:42:15.464Z,98142.00
2023-02-26T13:46:20.550Z,98145.00
2023-02-26T13:50:25.422Z,98151.00
2023-02-26T13:54:44.228Z,98155.00
2023-02-26T13:58:54.863Z,98143.00
2023-02-26T14:03:14.105Z,98147.00
2023-02-26T14:07:16.184Z,98146.00
2023-02-26T14:11:39.061Z,98147.00
2023-02-26T14:15:44.085Z,98146.00
2023-02-26T14:19:51.722Z,98155.00
2023-02-26T14:24:01.936Z,98159.00
2023-02-26T14:28:27.210Z,98170.00
2023-02-26T14:32:38.303Z,98163.00
2023-02-26T14:36:46.926Z,98167.00
2023-02-26T14:41:00.899Z,98170.00
2023-02-26T14:45:11.672Z,98168.00
2023-02-26T14:49:19.280Z,98162.00
2023-02-26T14:53:35.888Z,98177.00
2023-02-26T14:57:52.542Z,98176.00
2023-02-26T15:02:09.373Z,98171.00
2023-02-26T15:06:20.298Z,98178.00
2023-02-26T15:10:44.318Z,98190.00
2023-02-26T15:14:57.423Z,98177.00
2023-02-26T15:19:08.045Z,98184.00
2023-02-26T15:23:41.672Z,98185.00
2023-02-26T15:27:42.825Z,98208.00
2023-02-26T15:31:56.674Z,98207.00
2023-02-26T15:35:59.257Z,98200.00
2023-02-26T15:40:05.168Z,98191.00
2023-02-26T15:44:13.254Z,98194.00
2023-02-26T15:48:27.282Z,98200.00
2023-02-26T15:52:28.931Z,98204.00
2023-02-26T15:56:38.889Z,98194.00
2023-02-26T16:00:41.892Z,98208.00
2023-02-26T16:04:43.400Z,98204.00
2023-02-26T16:08:44.618Z,98198.00
2023-02-26T16:12:48.041Z,98206.00
2023-02-26T16:16:52.215Z,98214.00
2023-02-26T16:20:57.510Z,98242.00
2023-02-26T16:25:01.837Z,98230.00
2023-02-26T16:29:12.685Z,98237.00
2023-02-26T16:33:16.631Z,98253.00
2023-02-26T16:37:27.215Z,98253.00
2023-02-26T16:41:32.160Z,98274.00
2023-02-26T16:45:39.771Z,98275.00
2023-02-26T16:49:44.422Z,98266.00
2023-02-26T16:53:59.717Z,98274.00
2023-02-26T16:58:06.338Z,98272.00
2023-02-26T17:02:21.623Z,98290.00
2023-02-26T17:06:23.043Z,98294.00
2023-02-26T17:10:30.880Z,98176.00
2023-02-26T17:14:39.925Z,98296.00
2023-02-26T17:18:41.062Z,98306.00
2023-02-26T17:22:44.175Z,98308.00
2023-02-26T17:26:46.861Z,98308.00
2023-02-26T17:30:48.477Z,98334.00
2023-02-26T17:34:51.051Z,98333.00
2023-02-26T17:38:52.124Z,98319.00
2023-02-26T17:42:53.573Z,98328.00
2023-02-26T17:46:54.817Z,98317.00
2023-02-26T17:50:57.338Z,98336.00
2023-02-26T17:54:58.672Z,98349.00
2023-02-26T17:59:00.784Z,98341.00
2023-02-26T18:03:02.933Z,98357.00
2023-02-26T18:07:04.867Z,98240.00
2023-02-26T18:11:06.973Z,98364.00
2023-02-26T18:15:10.965Z,98362.00
2023-02-26T18:19:13.299Z,98365.00
2023-02-26T18:23:16.597Z,98365.00
2023-02-26T18:27:22.125Z,98381.00
2023-02-26T18:31:26.418Z,98377.00
2023-02-26T18:35:30.120Z,98388.00
2023-02-26T18:39:33.158Z,98388.00
2023-02-26T18:43:34.625Z,98390.00
2023-02-26T18:47:36.607Z,98384.00
2023-02-26T18:51:37.708Z,98280.00
2023-02-26T18:55:39.094Z,98391.00
2023-02-26T18:59:40.694Z,98383.00
2023-02-26T19:03:41.884Z,98390.00
2023-02-26T19:07:45.938Z,98400.00
2023-02-26T19:11:48.372Z,98405.00
2023-02-26T19:15:50.483Z,98403.00
2023-02-26T19:19:51.594Z,98405.00
2023-02-26T19:23:53.794Z,98407.00
2023-02-26T19:27:56.831Z,98408.00
2023-02-26T19:31:58.421Z,98409.00
2023-02-26T19:36:00.421Z,98423.00
2023-02-26T19:40:03.420Z,98430.00
2023-02-26T19:44:05.203Z,98425.00
2023-02-26T19:48:06.938Z,98438.00
2023-02-26T19:52:08.571Z,98443.00
2023-02-26T19:56:10.434Z,98450.00
2023-02-26T20:00:13.836Z,98452.00
2023-02-26T20:04:16.198Z,98450.00
2023-02-26T20:08:17.538Z,98451.00
2023-02-26T20:12:18.924Z,98460.00
2023-02-26T20:16:20.266Z,98464.00
2023-02-26T20:20:22.346Z,98474.00
2023-02-26T20:24:23.489Z,98468.00
2023-02-26T20:28:25.129Z,98474.00
2023-02-26T20:32:26.367Z,98483.00
2023-02-26T20:36:27.395Z,98494.00
2023-02-26T20:40:28.782Z,98495.00
2023-02-26T20:44:29.804Z,98496.00
2023-02-26T20:48:34.148Z,98493.00
2023-02-26T20:52:35.890Z,98500.00
2023-02-26T20:56:36.902Z,98497.00
2023-02-26T21:00:38.400Z,98493.00
2023-02-26T21:04:40.004Z,98499.00
2023-02-26T21:08:42.799Z,98510.00
2023-02-26T21:12:44.170Z,98510.00
2023-02-26T21:16:45.556Z,98509.00
2023-02-26T21:20:49.495Z,98512.00
2023-02-26T21:24:51.058Z,98511.00
2023-02-26T21:28:52.122Z,98521.00
2023-02-26T21:32:53.138Z,98511.00
2023-02-26T21:36:54.181Z,98518.00
2023-02-26T21:40:55.566Z,98501.00
2023-02-26T21:44:56.524Z,98508.00
2023-02-26T21:48:57.680Z,98510.00
2023-02-26T21:52:58.788Z,98515.00
2023-02-26T21:57:00.138Z,98508.00
2023-02-26T22:01:01.148Z,98513.00
2023-02-26T22:05:02.284Z,98513.00
2023-02-26T22:09:03.742Z,98507.00
2023-02-26T22:13:04.690Z,98514.00
2023-02-26T22:17:06.139Z,98506.00
2023-02-26T22:21:07.421Z,98511.00
2023-02-26T22:25:11.121Z,98515.00
2023-02-26T22:29:12.239Z,98510.00
2023-02-26T22:33:13.400Z,98517.00
2023-02-26T22:37:14.498Z,98521.00
2023-02-26T22:41:15.899Z,98514.00
2023-02-26T22:45:17.527Z,98519.00
2023-02-26T22:49:19.771Z,98516.00
2023-02-26T22:53:21.451Z,98520.00
2023-02-26T22:57:22.397Z,98512.00
2023-02-26T23:01:23.659Z,98508.00
2023-02-26T23:05:24.997Z,98527.00
2023-02-26T23:09:26.391Z,98521.00
2023-02-26T23:13:30.278Z,98523.00
2023-02-26T23:17:31.266Z,98525.00
2023-02-26T23:21:32.511Z,98518.00
2023-02-26T23:25:33.720Z,98517.00
2023-02-26T23:29:34.861Z,98517.00
2023-02-26T23:33:36.037Z,98524.00
2023-02-26T23:37:37.309Z,98526.00
2023-02-26T23:41:38.796Z,98524.00
2023-02-26T23:45:39.890Z,98525.00
2023-02-26T23:49:40.862Z,98521.00
2023-02-26T23:53:42.045Z,98523.00
2023-02-26T23:57:44.158Z,98521.00
